GSQ weather

Shark El Oweinat International Airport
New Valley Governorate, Egypt

Public forecast

Using degrees Celsius for public forecast. Weather courtesy of forecast.io.

METAR (pilot weather report)

Closest report is Abu Simbel Airport, 161.1 nm (298.4 km) E. Retrieved 2019/02/19 01:00 UTC (32 minutes ago):

HEBL 190100Z 36006KT CAVOK 11/M03 Q1020 NOSIG

TAF (pilot weather forecast)

Forecast is more than 12 hours old.

Retrieved 2019/02/17 18:00 UTC (1 day ago):

TAF HEOW 171700Z 1718/1824 32010G20KT CAVOK